Terminal Aerodrome Forecast
Issued by NWS Shreveport, LA

Home | Current Version | Previous Version | Text Only | Print | Product List | Glossary On
Versions: 1 2 3 4 5 6 7 8 9 10 11 12 13 14 15 16 17 18 19 20
191
FTUS44 KSHV 300547
TAFLFK
TAF
KLFK 300547Z 3006/3106 14003KT P6SM FEW040 SCT150
      TEMPO 3010/3013 3SM BR FEW020
     FM301400 13004KT P6SM SCT025 SCT120 BKN250
     FM301600 15006KT P6SM SCT040 BKN250
     FM310000 14005KT P6SM VCTS BKN045CB BKN080
     FM310300 13003KT P6SM SCT090 SCT180=

USA.gov is the U.S. government's official web portal to all federal, state and local government web resources and services.